Time;durP1;ratioP1;P1;durP2;ratioP2;P2;SDS_P1;SDS_P2;PMS_P1;PMS_P2;Temp;Humidity;BMP_temperature;BMP_pressure;BME280_temperature;BME280_humidity;BME280_pressure;Samples;Min_cycle;Max_cycle;Signal;HPM_P1;HPM_P2
2022/06/28 00:00:22;;;;;;;2.35;0.88;;;;;;;11.67;51.40;101153.69;5112849;27;20036;-47
2022/06/28 00:02:48;;;;;;;5.07;0.82;;;;;;;11.67;51.57;101142.09;5112566;28;20036;-46
2022/06/28 00:05:14;;;;;;;1.98;0.80;;;;;;;11.75;51.26;101158.16;5112689;28;20074;-46
2022/06/28 00:07:41;;;;;;;6.72;1.40;;;;;;;11.75;51.35;101152.78;5112614;28;20092;-50
2022/06/28 00:10:10;;;;;;;3.22;0.93;;;;;;;11.64;51.49;101145.97;5112265;28;20445;-45
2022/06/28 00:12:36;;;;;;;6.00;1.30;;;;;;;11.67;51.59;101151.00;5112567;28;20052;-45
2022/06/28 00:17:50;;;;;;;4.25;1.00;;;;;;;11.53;51.95;101162.56;5110960;28;20038;-46
2022/06/28 00:20:15;;;;;;;2.00;0.80;;;;;;;11.23;52.29;101111.41;5111051;28;20046;-45
2022/06/28 00:22:41;;;;;;;3.53;1.00;;;;;;;11.47;52.73;101166.00;5111314;28;20031;-46
2022/06/28 00:25:08;;;;;;;4.03;1.17;;;;;;;11.45;53.09;101162.66;5112388;28;20582;-48
2022/06/28 00:27:33;;;;;;;4.18;0.90;;;;;;;11.38;52.63;101152.59;5111957;28;20047;-45
2022/06/28 00:29:59;;;;;;;8.20;1.38;;;;;;;11.26;53.11;101143.31;5112472;28;20107;-46
2022/06/28 00:32:26;;;;;;;5.30;1.08;;;;;;;11.33;53.21;101157.72;5111821;28;20020;-47
2022/06/28 00:34:52;;;;;;;8.20;1.27;;;;;;;11.34;53.72;101161.25;5111425;28;20439;-45
2022/06/28 00:37:18;;;;;;;4.82;1.23;;;;;;;10.90;53.83;101084.84;5111395;28;20075;-47
2022/06/28 00:39:43;;;;;;;4.70;1.05;;;;;;;11.26;53.60;101161.31;5111496;28;20031;-46
2022/06/28 00:42:10;;;;;;;4.30;0.80;;;;;;;11.24;53.65;101156.94;5110007;28;20039;-46
2022/06/28 00:44:37;;;;;;;4.18;1.15;;;;;;;11.15;53.30;101141.91;5109731;28;20030;-46
2022/06/28 00:47:03;;;;;;;4.45;1.10;;;;;;;11.12;54.06;101142.25;5111904;28;20031;-46
2022/06/28 00:49:30;;;;;;;2.65;1.13;;;;;;;11.20;54.21;101154.81;5111404;28;20028;-46
2022/06/28 00:52:02;;;;;;;4.03;0.98;;;;;;;11.14;54.16;101148.28;5112151;28;20105;-48
2022/06/28 00:54:29;;;;;;;5.57;0.95;;;;;;;11.13;53.73;101145.78;5111928;28;20191;-47
2022/06/28 00:56:55;;;;;;;3.75;0.80;;;;;;;11.11;54.06;101151.34;5093599;28;20047;-49
2022/06/28 00:59:21;;;;;;;6.78;0.90;;;;;;;11.10;54.48;101154.22;5111877;28;20095;-47
2022/06/28 01:01:47;;;;;;;4.43;0.80;;;;;;;11.02;54.82;101144.38;5110445;28;20042;-46
2022/06/28 01:04:12;;;;;;;6.38;1.10;;;;;;;11.04;54.72;101156.59;5113539;28;20055;-47
2022/06/28 01:06:38;;;;;;;5.22;1.15;;;;;;;11.02;54.99;101169.38;5113798;28;20106;-44
2022/06/28 01:09:05;;;;;;;7.13;1.40;;;;;;;11.05;54.90;101168.22;5113902;28;20035;-45
2022/06/28 01:11:32;;;;;;;2.55;0.80;;;;;;;10.97;55.17;101163.69;5094486;28;20479;-46
2022/06/28 01:14:02;;;;;;;4.03;0.95;;;;;;;11.00;55.39;101166.03;5112202;28;20372;-48
2022/06/28 01:16:29;;;;;;;3.67;0.80;;;;;;;10.94;55.44;101164.06;5110385;28;20398;-47
2022/06/28 01:18:54;;;;;;;5.10;0.98;;;;;;;10.93;55.53;101172.31;5111945;28;20080;-45
2022/06/28 01:21:24;;;;;;;3.72;1.02;;;;;;;10.82;55.22;101152.88;5111586;28;20321;-47
2022/06/28 01:23:49;;;;;;;3.33;1.00;;;;;;;10.77;55.62;101143.69;5111887;28;20028;-49
2022/06/28 01:26:19;;;;;;;3.90;1.00;;;;;;;10.87;56.01;101167.66;5113538;28;20111;-52
2022/06/28 01:28:46;;;;;;;5.97;1.00;;;;;;;10.70;56.02;101143.59;5113495;28;20443;-46
2022/06/28 01:31:12;;;;;;;6.97;0.95;;;;;;;10.79;55.99;101166.69;5113242;28;20445;-49
2022/06/28 01:33:39;;;;;;;5.22;1.10;;;;;;;10.78;55.96;101173.06;5112906;28;20391;-47
2022/06/28 01:36:08;;;;;;;8.05;1.27;;;;;;;10.78;55.83;101173.06;5112902;28;20122;-48
2022/06/28 01:38:35;;;;;;;4.57;0.93;;;;;;;10.72;56.54;101168.41;5110338;28;20027;-46
2022/06/28 01:41:01;;;;;;;3.08;0.80;;;;;;;10.67;56.01;101161.91;5111847;28;20024;-47
2022/06/28 01:43:27;;;;;;;4.10;1.05;;;;;;;10.72;55.84;101172.97;5109927;28;20023;-47
2022/06/28 01:45:54;;;;;;;5.15;1.40;;;;;;;10.73;55.80;101162.00;5110946;28;20023;-47
2022/06/28 01:48:20;;;;;;;4.70;1.30;;;;;;;10.72;56.27;101170.28;5110933;28;20031;-46
2022/06/28 01:50:47;;;;;;;8.52;1.35;;;;;;;10.58;56.38;101156.56;5111366;28;20077;-48
2022/06/28 01:53:13;;;;;;;7.38;1.48;;;;;;;10.54;56.75;101165.16;5111531;28;20032;-47
2022/06/28 01:55:39;;;;;;;3.65;0.90;;;;;;;10.59;57.25;101177.03;5111388;28;20429;-46
2022/06/28 01:58:05;;;;;;;3.20;1.02;;;;;;;10.45;56.80;101154.44;5096825;28;20047;-47
2022/06/28 02:00:31;;;;;;;2.70;1.10;;;;;;;10.56;56.53;101174.69;5116022;28;20097;-44
2022/06/28 02:02:57;;;;;;;6.22;1.10;;;;;;;10.44;57.18;101162.69;5116302;28;20060;-45
2022/06/28 02:05:23;;;;;;;3.42;0.85;;;;;;;10.45;57.06;101158.97;5117469;28;20026;-46
2022/06/28 02:07:51;;;;;;;3.10;0.90;;;;;;;10.51;57.27;101173.56;5116634;28;20059;-46
2022/06/28 02:10:18;;;;;;;2.20;0.70;;;;;;;10.40;57.82;101166.72;5113654;28;20040;-47
2022/06/28 02:12:44;;;;;;;4.25;1.23;;;;;;;10.40;57.36;101164.03;5115099;28;20401;-46
2022/06/28 02:15:11;;;;;;;3.40;0.85;;;;;;;10.45;58.34;101183.16;5113623;28;20103;-47
2022/06/28 02:17:37;;;;;;;4.72;1.00;;;;;;;10.43;58.59;101171.75;5096474;28;20031;-45
2022/06/28 02:20:03;;;;;;;5.70;1.20;;;;;;;10.41;58.29;101166.56;5113638;28;20346;-46
2022/06/28 02:22:28;;;;;;;2.08;0.90;;;;;;;10.41;58.33;101168.41;5115237;28;20132;-47
2022/06/28 02:24:54;;;;;;;5.55;0.90;;;;;;;10.39;59.29;101175.81;5115248;28;20027;-48
2022/06/28 02:27:20;;;;;;;6.43;0.95;;;;;;;10.36;60.20;101174.28;5114245;28;20034;-46
2022/06/28 02:29:46;;;;;;;4.13;0.90;;;;;;;10.36;59.52;101174.28;5115725;28;20100;-48
2022/06/28 02:32:12;;;;;;;2.20;0.90;;;;;;;10.37;60.23;101173.28;5115301;28;20063;-45
2022/06/28 02:40:26;;;;;;;3.85;1.30;;;;;;;10.24;61.28;101164.94;5113910;28;20437;-45
2022/06/28 02:42:55;;;;;;;4.97;1.23;;;;;;;10.36;61.73;101174.28;5113127;28;20034;-46
2022/06/28 02:45:26;;;;;;;7.50;1.23;;;;;;;10.36;61.73;101186.88;5114812;28;20368;-46
2022/06/28 02:47:52;;;;;;;4.05;1.17;;;;;;;10.23;63.59;101179.34;5115854;28;20035;-45
2022/06/28 02:50:18;;;;;;;3.38;0.98;;;;;;;10.15;63.00;101166.81;5115905;28;20435;-45
2022/06/28 02:52:44;;;;;;;6.72;1.52;;;;;;;10.23;63.77;101182.03;5115028;28;20031;-45
2022/06/28 02:55:10;;;;;;;7.75;1.30;;;;;;;10.22;64.43;101183.88;5115775;28;20028;-45
2022/06/28 02:57:37;;;;;;;5.13;1.30;;;;;;;10.16;63.56;101173.84;5115754;28;20036;-49
2022/06/28 03:00:09;;;;;;;2.92;1.10;;;;;;;10.21;63.43;101174.16;5115743;28;20032;-45
2022/06/28 03:02:37;;;;;;;3.85;1.13;;;;;;;10.07;64.20;101161.47;5115296;28;20028;-47
2022/06/28 03:05:05;;;;;;;4.70;1.45;;;;;;;10.15;64.41;101176.72;5113106;28;20099;-47
2022/06/28 03:07:31;;;;;;;2.83;1.25;;;;;;;10.13;64.79;101189.47;5113225;28;20027;-47
2022/06/28 03:09:57;;;;;;;7.65;1.55;;;;;;;10.09;65.74;101188.97;5112859;28;20185;-46
2022/06/28 03:12:23;;;;;;;3.97;1.10;;;;;;;10.08;65.70;101188.16;5113833;28;20031;-46
2022/06/28 03:14:48;;;;;;;9.50;1.75;;;;;;;10.02;66.88;101179.94;5112814;28;20085;-48
2022/06/28 03:17:14;;;;;;;7.30;1.73;;;;;;;10.00;67.09;101184.63;5112482;28;20032;-44
2022/06/28 03:19:40;;;;;;;11.13;1.85;;;;;;;9.96;68.09;101186.84;5112898;28;20563;-46
2022/06/28 03:22:06;;;;;;;10.98;1.88;;;;;;;10.04;66.55;101183.28;5113823;28;20055;-45
2022/06/28 03:24:31;;;;;;;8.90;1.77;;;;;;;10.08;66.17;101185.47;5113803;28;20068;-46
2022/06/28 03:26:57;;;;;;;8.32;1.63;;;;;;;10.11;66.33;101180.75;5113754;28;20027;-45
2022/06/28 03:29:23;;;;;;;5.22;1.67;;;;;;;10.13;65.92;101179.56;5112662;28;20172;-46
2022/06/28 03:31:49;;;;;;;6.00;1.73;;;;;;;10.03;68.24;101187.81;5113580;28;20087;-46
2022/06/28 03:34:16;;;;;;;7.78;1.83;;;;;;;9.90;68.59;101174.09;5112467;28;20023;-49
2022/06/28 03:36:42;;;;;;;9.52;1.80;;;;;;;9.93;68.71;101170.25;5112659;28;20027;-44
2022/06/28 03:39:07;;;;;;;6.22;1.30;;;;;;;9.92;69.32;101176.59;5113840;28;20162;-45
2022/06/28 03:41:33;;;;;;;6.85;1.75;;;;;;;9.97;69.06;101176.94;5113991;28;20055;-46
2022/06/28 03:43:59;;;;;;;4.22;1.30;;;;;;;10.00;68.38;101180.09;5112259;28;20051;-46
2022/06/28 03:46:25;;;;;;;3.42;1.20;;;;;;;9.94;69.29;101178.13;5113473;28;20169;-45
2022/06/28 03:48:51;;;;;;;10.88;1.92;;;;;;;9.92;70.18;101176.59;5112626;28;20031;-46
2022/06/28 03:51:17;;;;;;;4.20;1.13;;;;;;;9.95;69.02;101174.41;5111862;28;20023;-49
2022/06/28 03:53:43;;;;;;;5.43;1.63;;;;;;;9.97;69.78;101174.25;5112633;28;20027;-48
2022/06/28 03:56:10;;;;;;;6.50;1.13;;;;;;;9.93;70.43;101176.44;5113591;28;20420;-48
2022/06/28 03:58:36;;;;;;;5.57;1.40;;;;;;;9.76;71.09;101148.81;5113727;28;20063;-47
2022/06/28 04:01:03;;;;;;;9.60;1.98;;;;;;;9.86;71.73;101168.25;5113104;28;20084;-47
2022/06/28 04:03:29;;;;;;;9.13;1.77;;;;;;;9.79;72.11;101161.88;5113492;28;20023;-45
2022/06/28 04:05:55;;;;;;;8.15;1.55;;;;;;;9.88;71.24;101173.44;5113962;28;20035;-45
2022/06/28 04:08:20;;;;;;;7.07;1.33;;;;;;;9.88;70.20;101165.41;5113725;28;20145;-47
2022/06/28 04:10:47;;;;;;;7.78;2.08;;;;;;;9.97;71.16;101175.06;5112500;28;20044;-46
2022/06/28 04:13:13;;;;;;;8.57;1.70;;;;;;;9.93;72.58;101165.69;5113989;28;20019;-46
2022/06/28 04:15:39;;;;;;;10.93;2.08;;;;;;;9.93;72.43;101164.88;5114513;28;20059;-47
2022/06/28 04:18:05;;;;;;;9.10;2.17;;;;;;;9.98;71.39;101168.72;5115302;28;20068;-46
2022/06/28 04:20:32;;;;;;;7.85;1.33;;;;;;;10.02;71.86;101161.16;5113995;28;20080;-46
2022/06/28 04:22:58;;;;;;;10.20;1.65;;;;;;;9.94;71.44;101148.59;5113745;28;20088;-45
2022/06/28 04:25:24;;;;;;;6.13;1.38;;;;;;;10.02;71.86;101153.09;5114813;27;20402;-47
2022/06/28 04:27:51;;;;;;;15.02;2.00;;;;;;;10.03;73.40;101155.63;5114396;28;20053;-45
2022/06/28 04:30:17;;;;;;;9.23;2.22;;;;;;;10.03;72.41;101168.22;5113150;28;20023;-46
2022/06/28 04:32:43;;;;;;;8.73;1.45;;;;;;;10.04;73.06;101161.81;5112969;28;20384;-47
2022/06/28 04:35:09;;;;;;;7.85;1.80;;;;;;;10.06;72.71;101165.97;5112364;28;20464;-46
2022/06/28 04:37:34;;;;;;;9.05;2.08;;;;;;;10.05;74.03;101166.19;5112402;28;20028;-46
2022/06/28 04:40:01;;;;;;;7.57;1.70;;;;;;;10.02;74.22;101166.53;5112030;28;20024;-47
2022/06/28 04:42:27;;;;;;;14.20;2.20;;;;;;;9.94;73.48;101143.25;5110898;28;20107;-46
2022/06/28 04:44:53;;;;;;;14.55;2.20;;;;;;;10.13;73.05;101166.16;5112357;28;20540;-47
2022/06/28 04:47:18;;;;;;;12.38;2.10;;;;;;;10.02;73.64;101147.75;5111914;28;20484;-45
2022/06/28 04:49:44;;;;;;;8.10;1.77;;;;;;;10.15;74.00;101156.06;5112475;28;20020;-46
2022/06/28 04:52:10;;;;;;;8.25;2.17;;;;;;;10.38;73.59;101152.63;5111926;28;20149;-46
2022/06/28 04:54:35;;;;;;;6.15;1.85;;;;;;;10.70;71.33;101153.47;5112136;28;20126;-46
2022/06/28 04:57:01;;;;;;;11.20;2.55;;;;;;;10.60;71.96;101154.53;5111981;28;20459;-45
2022/06/28 04:59:27;;;;;;;7.38;2.10;;;;;;;10.45;72.46;101149.06;5112213;28;20038;-46
2022/06/28 05:01:53;;;;;;;14.30;2.50;;;;;;;10.49;71.89;101151.41;5111290;28;20455;-45
2022/06/28 05:04:19;;;;;;;10.70;2.30;;;;;;;10.57;72.31;101160.28;5115085;28;20102;-46
2022/06/28 05:06:45;;;;;;;11.30;1.42;;;;;;;10.56;72.61;101142.47;5113779;28;20054;-47
2022/06/28 05:09:11;;;;;;;12.85;2.30;;;;;;;10.60;73.14;101164.44;5113494;28;20024;-47
2022/06/28 05:11:37;;;;;;;8.15;1.77;;;;;;;10.61;73.38;101163.44;5112832;28;20045;-46
2022/06/28 05:14:03;;;;;;;9.95;2.17;;;;;;;10.59;73.58;101155.56;5111554;28;20133;-46
2022/06/28 05:16:29;;;;;;;8.48;1.95;;;;;;;10.66;72.42;101163.75;5112226;28;20083;-46
2022/06/28 05:18:54;;;;;;;9.95;1.85;;;;;;;10.64;73.95;101172.00;5112246;28;20364;-45
2022/06/28 05:21:20;;;;;;;12.13;1.95;;;;;;;10.66;73.64;101169.13;5112599;28;20020;-46
2022/06/28 05:23:46;;;;;;;6.50;1.55;;;;;;;10.22;72.78;101092.63;5112209;28;20027;-46
2022/06/28 05:26:13;;;;;;;18.10;1.88;;;;;;;10.70;73.50;101165.06;5112081;28;20475;-46
2022/06/28 05:28:38;;;;;;;13.95;2.45;;;;;;;10.40;74.33;101108.50;5112014;28;20110;-47
2022/06/28 05:31:04;;;;;;;10.10;1.92;;;;;;;10.78;73.73;101164.19;5113949;28;20119;-47
2022/06/28 05:33:30;;;;;;;10.45;1.90;;;;;;;10.74;72.98;101154.81;5116483;28;20036;-46
2022/06/28 05:35:56;;;;;;;12.45;2.03;;;;;;;10.74;74.17;101139.50;5120240;28;20027;-46
2022/06/28 05:38:23;;;;;;;7.63;1.60;;;;;;;10.83;73.57;101148.38;5119292;28;20027;-46
2022/06/28 05:40:48;;;;;;;9.30;2.10;;;;;;;10.88;72.75;101143.28;5118048;28;20050;-47
2022/06/28 05:43:14;;;;;;;7.97;2.10;;;;;;;10.86;72.56;101134.56;5119833;28;20440;-46
2022/06/28 05:45:40;;;;;;;11.80;1.60;;;;;;;11.00;73.19;101152.59;5115791;28;20031;-46
2022/06/28 05:48:07;;;;;;;11.82;1.67;;;;;;;11.11;73.31;101156.72;5116236;28;20031;-46
2022/06/28 05:50:32;;;;;;;6.97;1.55;;;;;;;10.97;73.54;101126.06;5116041;28;20023;-46
2022/06/28 05:52:58;;;;;;;11.48;1.98;;;;;;;11.17;73.95;101155.16;5115685;28;20413;-49
2022/06/28 05:55:24;;;;;;;10.65;2.00;;;;;;;11.27;73.44;101147.66;5115756;28;20024;-46
2022/06/28 05:57:50;;;;;;;15.18;2.28;;;;;;;11.34;73.80;101148.63;5115585;28;20069;-46
2022/06/28 06:00:16;;;;;;;6.88;1.50;;;;;;;11.29;73.32;101117.91;5114125;28;20388;-46
2022/06/28 06:02:41;;;;;;;6.75;1.95;;;;;;;11.18;73.23;101086.91;5115816;28;20100;-46
2022/06/28 06:05:08;;;;;;;11.35;2.05;;;;;;;11.54;73.58;101140.06;5115309;28;20433;-49
2022/06/28 06:07:34;;;;;;;12.55;2.40;;;;;;;11.52;74.09;101117.88;5114283;28;20397;-46
2022/06/28 06:09:59;;;;;;;16.92;2.10;;;;;;;11.57;74.37;101108.25;5113836;28;20081;-47
2022/06/28 06:12:25;;;;;;;15.25;2.35;;;;;;;11.68;74.95;101120.41;5115206;28;20372;-47
2022/06/28 06:14:51;;;;;;;9.23;1.38;;;;;;;11.37;73.53;101056.84;5115219;28;20027;-47
2022/06/28 06:17:17;;;;;;;7.00;1.65;;;;;;;11.85;74.08;101123.75;5115416;28;20080;-46
2022/06/28 06:19:43;;;;;;;13.32;2.30;;;;;;;11.92;73.20;101122.00;5113550;28;20027;-46
2022/06/28 06:22:09;;;;;;;8.95;1.48;;;;;;;12.01;73.77;101128.94;5115331;28;20035;-46
2022/06/28 06:24:34;;;;;;;12.45;2.17;;;;;;;12.09;73.50;101124.47;5115284;28;20042;-46
2022/06/28 06:27:00;;;;;;;12.60;2.08;;;;;;;12.06;73.25;101111.41;5115191;28;20047;-46
2022/06/28 06:29:26;;;;;;;10.48;1.67;;;;;;;12.19;72.65;101125.88;5115654;28;20061;-47
2022/06/28 06:31:52;;;;;;;16.08;2.20;;;;;;;12.24;73.75;101119.06;5113825;28;20024;-46
2022/06/28 06:34:18;;;;;;;16.30;2.00;;;;;;;12.35;73.09;101118.59;5114235;28;20114;-47
2022/06/28 06:36:46;;;;;;;10.18;2.17;;;;;;;12.41;73.78;101117.84;5115330;28;20027;-47
2022/06/28 06:39:13;;;;;;;14.68;1.67;;;;;;;12.49;73.34;101108.81;5114942;28;20106;-46
2022/06/28 06:41:39;;;;;;;17.70;1.98;;;;;;;12.56;73.18;101117.81;5113811;28;20105;-46
2022/06/28 06:44:05;;;;;;;12.98;2.05;;;;;;;12.58;73.51;101110.38;5112763;28;20448;-45
2022/06/28 06:46:31;;;;;;;10.63;1.80;;;;;;;12.73;72.40;101116.53;5114877;28;20464;-48
2022/06/28 06:48:56;;;;;;;8.30;1.35;;;;;;;12.80;72.13;101119.31;5114639;28;20040;-46
2022/06/28 06:51:22;;;;;;;12.38;2.42;;;;;;;12.91;72.01;101116.09;5114574;28;20028;-46
2022/06/28 06:53:48;;;;;;;15.02;1.85;;;;;;;12.92;71.92;101096.19;5115152;28;20039;-47
2022/06/28 06:56:14;;;;;;;17.42;2.22;;;;;;;13.09;71.44;101121.03;5115157;28;20100;-48
2022/06/28 06:58:40;;;;;;;17.00;2.33;;;;;;;13.05;71.48;101100.84;5114088;28;20099;-47
2022/06/28 07:01:05;;;;;;;17.13;2.22;;;;;;;13.32;71.38;101123.53;5114998;28;20024;-48
2022/06/28 07:03:31;;;;;;;14.10;1.92;;;;;;;13.53;70.14;101119.13;5115061;28;20031;-47
2022/06/28 07:05:57;;;;;;;10.95;2.15;;;;;;;13.63;70.03;101116.91;5114796;28;20341;-47
2022/06/28 07:08:22;;;;;;;15.63;2.40;;;;;;;13.73;69.66;101114.69;5115622;28;20031;-47
2022/06/28 07:10:48;;;;;;;14.38;2.28;;;;;;;13.72;69.46;101120.25;5114370;28;20044;-50
2022/06/28 07:13:14;;;;;;;11.88;2.33;;;;;;;13.69;69.12;101116.09;5115911;28;20028;-46
2022/06/28 07:15:40;;;;;;;13.30;2.40;;;;;;;13.78;68.12;101114.09;5114307;28;20091;-48
2022/06/28 07:18:06;;;;;;;13.05;2.35;;;;;;;13.80;68.02;101101.22;5115761;28;20059;-46
2022/06/28 07:20:32;;;;;;;13.82;1.80;;;;;;;13.75;67.47;101093.72;5115397;28;20114;-46
2022/06/28 07:22:58;;;;;;;8.25;1.65;;;;;;;13.90;66.57;101117.88;5114035;28;20032;-45
2022/06/28 07:25:24;;;;;;;12.57;1.73;;;;;;;13.94;65.70;101107.53;5115041;28;20040;-47
2022/06/28 07:27:50;;;;;;;9.73;1.33;;;;;;;13.91;65.20;101092.56;5115225;28;20133;-49
2022/06/28 07:30:15;;;;;;;8.88;1.90;;;;;;;14.13;64.54;101104.09;5114428;28;20047;-46
2022/06/28 07:32:41;;;;;;;9.18;1.60;;;;;;;14.21;64.25;101094.97;5095557;28;20477;-47
2022/06/28 07:35:08;;;;;;;11.90;1.63;;;;;;;14.35;64.28;101101.25;5113853;28;20059;-46
2022/06/28 07:37:34;;;;;;;7.43;1.70;;;;;;;14.33;63.31;101087.94;5114036;28;20027;-47
2022/06/28 07:40:00;;;;;;;8.05;1.80;;;;;;;14.48;62.95;101106.69;5113634;28;20490;-48
2022/06/28 07:42:25;;;;;;;8.48;1.52;;;;;;;14.54;62.36;101091.53;5112916;28;20027;-47
2022/06/28 07:44:51;;;;;;;6.13;1.55;;;;;;;14.64;61.55;101102.00;5113045;28;20031;-49
2022/06/28 07:47:17;;;;;;;4.15;1.25;;;;;;;14.67;61.01;101088.03;5114311;28;20032;-48
2022/06/28 07:52:44;;;;;;;5.68;1.60;;;;;;;14.76;59.70;101088.69;5112689;28;20047;-48
2022/06/28 07:55:11;;;;;;;5.85;1.40;;;;;;;14.95;59.25;101089.75;5113824;28;20479;-47
2022/06/28 07:57:37;;;;;;;7.30;1.63;;;;;;;15.06;58.57;101087.28;5114557;28;20050;-47
2022/06/28 08:00:05;;;;;;;3.63;1.27;;;;;;;15.15;58.34;101092.47;5114185;28;20028;-50
2022/06/28 08:02:31;;;;;;;5.28;1.20;;;;;;;14.96;58.43;101054.38;5114279;28;20032;-46
2022/06/28 08:04:57;;;;;;;6.93;2.10;;;;;;;14.96;57.81;101084.13;5113461;28;20050;-45
2022/06/28 08:07:22;;;;;;;6.72;1.20;;;;;;;15.02;56.97;101086.00;5114609;28;20468;-45
2022/06/28 08:09:49;;;;;;;10.90;1.55;;;;;;;14.98;56.61;101071.22;5113230;28;20181;-46
2022/06/28 08:12:14;;;;;;;8.45;1.20;;;;;;;15.26;55.89;101081.81;5112757;28;20499;-46
2022/06/28 08:14:40;;;;;;;8.68;1.65;;;;;;;15.42;55.08;101068.94;5114333;28;20031;-47
2022/06/28 08:17:06;;;;;;;6.28;1.58;;;;;;;15.81;54.40;101073.44;5114222;28;20119;-45
2022/06/28 08:19:32;;;;;;;11.95;1.40;;;;;;;15.92;52.43;101016.94;5114444;28;20046;-45
2022/06/28 08:21:58;;;;;;;7.82;1.58;;;;;;;17.19;48.86;101071.16;5112550;28;20031;-46
2022/06/28 08:24:24;;;;;;;6.10;1.45;;;;;;;18.01;47.84;101070.13;5112873;28;20019;-46
2022/06/28 08:26:49;;;;;;;10.45;1.90;;;;;;;18.61;46.31;101069.28;5113049;28;20379;-48
2022/06/28 08:29:17;;;;;;;6.45;1.38;;;;;;;19.24;44.86;101060.56;5113733;28;20420;-51
2022/06/28 08:31:43;;;;;;;5.28;1.27;;;;;;;19.80;43.44;101071.91;5112923;28;20095;-51
2022/06/28 08:34:10;;;;;;;5.20;1.10;;;;;;;20.27;43.29;101044.47;5113921;28;20027;-52
2022/06/28 08:36:36;;;;;;;7.80;1.30;;;;;;;20.69;41.42;101052.38;5113921;28;20038;-50
2022/06/28 08:39:03;;;;;;;9.85;1.52;;;;;;;21.09;40.72;101053.28;5113099;28;20028;-47
2022/06/28 08:41:33;;;;;;;5.47;1.20;;;;;;;21.64;37.85;101016.09;5112610;28;20072;-48
2022/06/28 08:43:59;;;;;;;8.10;1.38;;;;;;;22.23;39.57;101037.28;5112544;28;20039;-49
2022/06/28 08:46:24;;;;;;;5.13;1.65;;;;;;;22.73;37.16;101035.31;5111075;28;20092;-47
2022/06/28 08:48:55;;;;;;;5.65;1.20;;;;;;;23.16;37.05;101011.56;5111046;28;20078;-46
2022/06/28 08:51:22;;;;;;;4.35;0.98;;;;;;;23.59;36.62;101037.03;5111047;28;20207;-47
2022/06/28 08:53:48;;;;;;;5.63;1.38;;;;;;;23.98;34.65;101027.59;5111406;28;20480;-48
2022/06/28 08:56:15;;;;;;;3.80;1.00;;;;;;;23.25;38.10;101026.41;5111805;28;20035;-47
2022/06/28 08:58:43;;;;;;;6.32;1.45;;;;;;;22.06;37.88;101042.03;5112219;28;20115;-49
2022/06/28 09:01:11;;;;;;;3.65;0.98;;;;;;;21.41;39.38;101067.16;5110517;28;20035;-48
2022/06/28 09:03:38;;;;;;;3.30;0.93;;;;;;;20.83;40.51;101030.19;5112774;28;20464;-49
2022/06/28 09:06:05;;;;;;;6.25;1.15;;;;;;;20.34;41.39;101044.34;5112903;28;20465;-47
2022/06/28 09:08:31;;;;;;;5.93;1.67;;;;;;;19.63;41.41;101028.19;5113937;28;20058;-49
2022/06/28 09:10:56;;;;;;;6.18;1.30;;;;;;;19.33;41.81;101031.06;5112305;28;20043;-48
2022/06/28 09:13:22;;;;;;;6.30;1.48;;;;;;;19.19;42.38;101019.59;5110771;28;20076;-48
2022/06/28 09:15:58;;;;;;;9.63;1.48;;;;;;;19.65;41.79;101023.34;5112015;28;20059;-47
2022/06/28 09:18:42;;;;;;;6.75;1.30;;;;;;;19.56;41.06;101026.66;5111957;28;20109;-49
2022/06/28 09:21:11;;;;;;;5.85;1.10;;;;;;;19.32;42.76;101023.97;5110111;28;20061;-46
2022/06/28 09:23:40;;;;;;;3.15;0.93;;;;;;;18.94;43.33;101009.78;5111627;28;20028;-48
2022/06/28 09:26:11;;;;;;;7.10;1.20;;;;;;;18.95;43.50;101022.31;5093481;28;20035;-47
2022/06/28 09:28:52;;;;;;;9.43;1.25;;;;;;;18.83;43.83;101028.81;5111865;28;20034;-47
2022/06/28 09:31:23;;;;;;;7.55;1.45;;;;;;;18.59;44.63;101017.88;5110236;28;20042;-48
2022/06/28 09:34:04;;;;;;;4.63;0.70;;;;;;;18.90;43.96;101021.34;5111741;28;20521;-47
2022/06/28 09:36:33;;;;;;;5.82;1.20;;;;;;;19.59;43.69;101016.09;5094004;28;20483;-51
2022/06/28 09:39:18;;;;;;;7.13;1.30;;;;;;;20.25;42.19;101016.63;5110935;28;20142;-46
2022/06/28 09:41:49;;;;;;;11.55;1.10;;;;;;;20.11;42.54;101002.47;5094012;28;20375;-47
2022/06/28 09:44:17;;;;;;;6.00;1.15;;;;;;;19.88;41.69;100997.94;5112291;28;20096;-50
2022/06/28 09:46:44;;;;;;;4.70;1.20;;;;;;;20.15;42.19;101002.81;5093569;28;20456;-47
2022/06/28 09:49:10;;;;;;;6.03;1.35;;;;;;;20.18;42.06;101006.94;5093531;28;20042;-48
2022/06/28 09:51:38;;;;;;;4.78;1.38;;;;;;;19.74;42.59;100988.38;5111982;28;20020;-46
2022/06/28 09:54:07;;;;;;;5.70;1.00;;;;;;;19.50;43.48;101004.75;5111918;28;20472;-50
2022/06/28 09:56:36;;;;;;;3.67;1.30;;;;;;;19.53;43.86;101007.00;5112810;28;20459;-47
2022/06/28 09:59:03;;;;;;;6.45;1.15;;;;;;;19.48;43.74;101008.78;5113017;28;20083;-49
2022/06/28 10:01:30;;;;;;;3.78;0.98;;;;;;;19.31;44.00;101006.78;5109954;28;20481;-46
2022/06/28 10:03:57;;;;;;;6.07;0.95;;;;;;;19.08;44.51;100998.66;5111728;28;20063;-48
2022/06/28 10:06:23;;;;;;;3.70;1.02;;;;;;;18.84;44.78;101019.59;5110067;28;20019;-48
2022/06/28 10:08:49;;;;;;;7.28;1.23;;;;;;;18.53;45.46;100995.13;5110847;28;20106;-48
2022/06/28 10:11:16;;;;;;;6.35;1.10;;;;;;;18.38;45.63;100984.69;5109330;28;20176;-47
2022/06/28 10:17:04;;;;;;;3.95;0.82;;;;;;;18.97;45.18;101003.03;5111042;28;20035;-45
2022/06/28 10:19:32;;;;;;;1.95;0.75;;;;;;;19.47;44.31;100988.06;5114303;28;20091;-47
2022/06/28 10:22:10;;;;;;;10.40;1.10;;;;;;;19.84;43.12;100996.75;5114806;28;20039;-46
2022/06/28 10:24:58;;;;;;;5.00;1.08;;;;;;;20.47;42.39;100988.66;5115065;28;20072;-46
2022/06/28 10:27:24;;;;;;;3.75;1.15;;;;;;;20.68;41.31;100936.06;5082376;28;20092;-46
2022/06/28 10:30:28;;;;;;;4.85;1.17;;;;;;;22.45;39.11;100979.78;5114659;28;20065;-46
2022/06/28 10:33:02;;;;;;;4.28;1.00;;;;;;;24.17;36.10;100962.06;5113881;28;20032;-47
2022/06/28 10:35:52;;;;;;;7.82;0.95;;;;;;;25.28;32.84;100974.09;5113651;28;20038;-47
2022/06/28 10:38:18;;;;;;;3.97;1.30;;;;;;;24.45;35.29;100957.97;5099982;28;20050;-49
2022/06/28 10:40:47;;;;;;;2.13;0.80;;;;;;;23.25;37.13;100962.56;5114395;28;20024;-49
2022/06/28 10:43:16;;;;;;;4.90;1.10;;;;;;;21.94;39.50;100957.38;5113039;28;20024;-46
2022/06/28 10:46:05;;;;;;;8.65;1.40;;;;;;;21.26;39.67;100968.56;5096289;28;20130;-48
2022/06/28 10:48:52;;;;;;;2.03;0.90;;;;;;;21.26;40.69;100963.09;5099417;28;20050;-47
2022/06/28 10:51:20;;;;;;;2.17;0.80;;;;;;;21.29;40.66;100962.59;5098743;28;20114;-46
2022/06/28 10:54:04;;;;;;;3.88;1.15;;;;;;;21.16;40.33;100963.78;5112537;28;20024;-47
2022/06/28 10:56:35;;;;;;;;;;;;;;;20.96;41.01;100956.13;5113087;28;20027;-47
2022/06/28 10:59:04;;;;;;;5.07;1.10;;;;;;;20.92;41.09;100949.53;5113611;28;19912;-46
2022/06/28 11:01:52;;;;;;;4.55;1.08;;;;;;;20.99;40.58;100968.47;5112405;28;20191;-46
2022/06/28 11:04:26;;;;;;;5.28;1.10;;;;;;;21.15;39.95;100937.53;5113404;28;20183;-48
2022/06/28 11:06:53;;;;;;;;;;;;;;;21.44;40.18;100951.03;5115157;28;20026;-48
2022/06/28 11:09:59;;;;;;;6.55;1.00;;;;;;;22.83;37.55;100927.78;5114210;28;20352;-47
2022/06/28 11:12:41;;;;;;;5.28;1.00;;;;;;;23.90;35.79;100943.91;5105401;28;20035;-46
2022/06/28 11:15:10;;;;;;;4.30;1.13;;;;;;;23.89;35.38;100931.28;5101026;28;20019;-46
2022/06/28 11:17:40;;;;;;;5.53;0.95;;;;;;;23.73;37.06;100930.41;5116395;28;20374;-50
2022/06/28 11:20:09;;;;;;;4.07;1.00;;;;;;;24.62;34.85;100933.00;5115309;28;20443;-48
2022/06/28 11:22:51;;;;;;;6.22;0.73;;;;;;;25.91;31.80;100920.44;5114878;28;20122;-51
2022/06/28 11:25:22;;;;;;;5.47;0.93;;;;;;;24.97;34.12;100925.78;5113821;28;20035;-48
2022/06/28 11:27:52;;;;;;;1.70;0.80;;;;;;;23.96;35.01;100921.69;5112851;28;20114;-49
2022/06/28 11:30:20;;;;;;;3.08;0.88;;;;;;;23.15;36.39;100924.97;5114252;28;20069;-47
2022/06/28 11:32:50;;;;;;;6.03;1.02;;;;;;;22.37;37.79;100918.13;5113956;28;20110;-46
2022/06/28 11:35:18;;;;;;;3.60;0.90;;;;;;;22.27;38.26;100909.88;5113748;28;20058;-47
2022/06/28 11:38:05;;;;;;;3.88;0.98;;;;;;;21.98;37.83;100917.50;5113466;28;20029;-48
2022/06/28 11:40:47;;;;;;;8.00;1.10;;;;;;;21.46;39.06;100908.75;5097909;28;20039;-47